< < Back
Terminal Aerodrome Forecast


Current Version              Previous Versions:   1  2  3  4  5  6  7  8  9  

Terminal Aerodrome Forecast

477
FTUS44 KOHX 030954 AAA
TAFCSV
TAF AMD
KCSV 030954Z 0310/0406 00000KT P6SM SCT200
      TEMPO 0311/0312 5SM BR
     FM031700 36003KT P6SM BKN080 BKN200
     FM040000 00000KT P6SM BKN200=

Latest METAR

739
SAUS70 KWBC 031500 RRE
MTRCSV
METAR KCSV 031453Z AUTO 03006KT 10SM CLR 28/18 A3011 RMK AO2 SLP173
T02780178 51003


USA.gov is the U.S. government's official web portal to all federal, state and local government web resources and services.